Time;durP1;ratioP1;P1;durP2;ratioP2;P2;SDS_P1;SDS_P2;PMS_P1;PMS_P2;Temp;Humidity;BMP_temperature;BMP_pressure;BME280_temperature;BME280_humidity;BME280_pressure;Samples;Min_cycle;Max_cycle;Signal;HPM_P1;HPM_P2
2022/02/15 00:02:13;;;;;;;1.47;1.10;;;8.20;83.00;;;;;;4982292;28;20277;-72
2022/02/15 00:04:38;;;;;;;1.60;1.20;;;8.20;83.10;;;;;;4977604;28;20188;-72
2022/02/15 00:07:04;;;;;;;2.30;1.50;;;8.20;83.10;;;;;;4982424;28;20251;-75
2022/02/15 00:09:30;;;;;;;1.97;1.20;;;8.20;83.10;;;;;;4975506;28;20195;-73
2022/02/15 00:11:55;;;;;;;1.70;1.10;;;8.20;83.40;;;;;;4982041;28;20210;-72
2022/02/15 00:14:21;;;;;;;1.97;1.27;;;8.20;83.40;;;;;;4985106;28;20227;-71
2022/02/15 00:16:48;;;;;;;1.50;1.13;;;8.20;83.40;;;;;;4978470;28;20616;-73
2022/02/15 00:19:13;;;;;;;2.13;2.03;;;8.20;83.60;;;;;;4983154;28;20475;-72
2022/02/15 00:21:39;;;;;;;2.60;1.70;;;8.20;83.40;;;;;;4967365;28;20455;-75
2022/02/15 00:24:05;;;;;;;1.60;1.20;;;8.20;83.40;;;;;;4982354;28;20688;-73
2022/02/15 00:26:31;;;;;;;2.53;1.60;;;8.20;83.60;;;;;;4986529;28;20187;-73
2022/02/15 00:28:57;;;;;;;2.03;1.40;;;8.20;83.80;;;;;;4977207;28;20449;-74
2022/02/15 00:31:23;;;;;;;2.37;1.30;;;8.10;83.70;;;;;;4980945;28;20699;-72
2022/02/15 00:33:49;;;;;;;1.60;1.57;;;8.10;84.10;;;;;;4976158;28;20732;-73
2022/02/15 00:36:17;;;;;;;3.83;2.00;;;8.10;84.10;;;;;;4978270;28;20418;-72
2022/02/15 00:38:43;;;;;;;2.87;2.03;;;8.10;84.10;;;;;;4979549;28;20673;-73
2022/02/15 00:41:09;;;;;;;2.77;1.63;;;8.10;84.00;;;;;;4982124;28;20455;-74
2022/02/15 00:43:34;;;;;;;3.87;1.80;;;8.00;84.10;;;;;;4977348;28;20297;-73
2022/02/15 00:46:00;;;;;;;1.93;1.80;;;8.00;84.30;;;;;;4982347;28;20178;-72
2022/02/15 00:48:26;;;;;;;3.27;1.53;;;8.00;84.40;;;;;;4973880;28;20682;-73
2022/02/15 00:50:52;;;;;;;2.40;1.60;;;8.00;84.40;;;;;;4979601;28;20234;-72
2022/02/15 00:53:17;;;;;;;2.70;1.57;;;8.00;84.30;;;;;;4984518;28;20175;-73
2022/02/15 00:55:43;;;;;;;2.43;1.27;;;8.00;84.30;;;;;;4982364;28;20211;-71
2022/02/15 00:58:09;;;;;;;1.80;1.60;;;8.00;84.30;;;;;;4987208;28;20554;-72
2022/02/15 01:00:34;;;;;;;3.00;1.60;;;8.10;84.10;;;;;;4975668;28;20211;-72
2022/02/15 01:03:00;;;;;;;2.70;1.70;;;8.00;84.10;;;;;;4985737;28;20179;-72
2022/02/15 01:05:26;;;;;;;1.67;1.50;;;8.00;84.10;;;;;;4984797;28;20190;-74
2022/02/15 01:07:51;;;;;;;2.20;1.70;;;8.00;84.10;;;;;;4976962;28;20183;-74
2022/02/15 01:10:20;;;;;;;1.80;1.63;;;8.00;84.10;;;;;;4980838;28;20439;-73
2022/02/15 01:12:46;;;;;;;3.33;1.73;;;7.90;84.30;;;;;;4976018;28;20273;-72
2022/02/15 01:15:16;;;;;;;3.70;1.73;;;7.90;84.40;;;;;;4978463;28;20468;-73
2022/02/15 01:17:45;;;;;;;2.30;1.70;;;8.00;84.10;;;;;;4976831;28;20429;-71
2022/02/15 01:20:12;;;;;;;2.93;2.00;;;8.00;84.10;;;;;;4975170;28;20455;-71
2022/02/15 01:22:38;;;;;;;3.43;1.97;;;7.90;84.30;;;;;;4971589;28;20427;-73
2022/02/15 01:25:05;;;;;;;3.37;2.00;;;7.80;84.40;;;;;;4982027;28;20525;-72
2022/02/15 01:27:30;;;;;;;1.70;1.53;;;7.80;84.60;;;;;;4974706;28;20434;-71
2022/02/15 01:29:56;;;;;;;3.23;1.83;;;7.80;84.90;;;;;;4981930;28;20425;-73
2022/02/15 01:32:22;;;;;;;3.80;2.20;;;7.70;84.70;;;;;;4983620;28;20191;-73
2022/02/15 01:34:48;;;;;;;2.80;2.27;;;7.70;85.00;;;;;;4979975;28;20215;-71
2022/02/15 01:37:14;;;;;;;2.17;1.80;;;7.70;85.00;;;;;;4982432;28;20180;-73
2022/02/15 01:39:41;;;;;;;2.97;2.00;;;7.60;85.30;;;;;;4991105;28;20513;-74
2022/02/15 01:42:07;;;;;;;2.27;1.80;;;7.50;85.50;;;;;;4979283;28;20883;-73
2022/02/15 01:44:35;;;;;;;2.33;1.90;;;7.50;85.60;;;;;;4990455;28;20448;-73
2022/02/15 01:47:01;;;;;;;2.87;2.33;;;7.50;85.60;;;;;;4978307;28;20424;-74
2022/02/15 01:49:27;;;;;;;3.17;1.70;;;7.50;85.70;;;;;;4983898;28;20484;-74
2022/02/15 01:51:53;;;;;;;3.70;1.70;;;7.50;85.60;;;;;;4979652;28;20445;-73
2022/02/15 01:54:18;;;;;;;2.47;1.87;;;7.50;85.60;;;;;;4984764;28;20290;-72
2022/02/15 01:56:45;;;;;;;2.27;1.57;;;7.40;85.60;;;;;;4978123;28;20825;-71
2022/02/15 01:59:11;;;;;;;2.90;2.00;;;7.50;85.60;;;;;;4982709;28;20193;-71
2022/02/15 02:01:36;;;;;;;3.77;2.00;;;7.50;85.60;;;;;;4973656;28;20439;-74
2022/02/15 02:04:02;;;;;;;5.37;1.90;;;7.40;85.50;;;;;;4982360;28;21114;-75
2022/02/15 02:06:28;;;;;;;3.50;1.90;;;7.40;85.50;;;;;;4982704;28;20750;-72
2022/02/15 02:08:54;;;;;;;5.73;2.03;;;7.40;85.50;;;;;;4981489;28;20525;-73
2022/02/15 02:11:20;;;;;;;2.30;1.60;;;7.40;85.30;;;;;;4982246;28;20235;-73
2022/02/15 02:13:46;;;;;;;2.97;1.97;;;7.40;85.30;;;;;;4982878;28;20926;-73
2022/02/15 02:16:11;;;;;;;4.00;2.03;;;7.40;85.30;;;;;;4991328;28;20304;-73
2022/02/15 02:18:37;;;;;;;4.40;1.90;;;7.40;85.50;;;;;;4995364;28;20558;-71
2022/02/15 02:21:04;;;;;;;4.07;1.93;;;7.40;85.50;;;;;;4972610;28;20266;-72
2022/02/15 02:23:31;;;;;;;1.97;1.47;;;7.40;85.50;;;;;;4987511;28;20179;-72
2022/02/15 02:25:56;;;;;;;2.10;1.60;;;7.40;85.50;;;;;;4983097;28;20434;-73
2022/02/15 02:28:23;;;;;;;2.93;1.70;;;7.40;85.60;;;;;;4984452;28;20879;-73
2022/02/15 02:30:49;;;;;;;2.10;1.70;;;7.30;85.60;;;;;;4978610;28;20210;-73
2022/02/15 02:33:14;;;;;;;2.70;2.00;;;7.30;85.60;;;;;;4987052;28;20529;-73
2022/02/15 02:35:40;;;;;;;3.30;1.90;;;7.30;85.60;;;;;;4977392;28;20463;-73
2022/02/15 02:38:06;;;;;;;3.10;1.60;;;7.20;85.70;;;;;;4983406;28;20237;-72
2022/02/15 02:40:33;;;;;;;4.10;1.80;;;7.20;86.00;;;;;;4983536;28;20563;-73
2022/02/15 02:42:59;;;;;;;8.90;1.73;;;7.30;86.00;;;;;;4981755;28;20198;-73
2022/02/15 02:45:25;;;;;;;2.40;1.60;;;7.20;85.70;;;;;;4980445;28;20416;-74
2022/02/15 02:47:54;;;;;;;3.43;1.80;;;7.20;85.90;;;;;;4980202;28;20808;-73
2022/02/15 02:50:24;;;;;;;4.23;1.60;;;7.20;85.90;;;;;;4977673;28;20230;-73
2022/02/15 02:52:51;;;;;;;4.13;2.10;;;7.20;86.00;;;;;;4991421;28;20423;-72
2022/02/15 02:55:16;;;;;;;2.73;1.50;;;7.20;85.90;;;;;;4975010;28;20470;-74
2022/02/15 02:57:42;;;;;;;3.40;1.90;;;7.30;85.90;;;;;;4987143;28;20429;-74
2022/02/15 03:00:11;;;;;;;3.13;2.13;;;7.20;85.90;;;;;;4971816;28;20918;-74
2022/02/15 03:02:37;;;;;;;3.57;1.97;;;7.20;85.90;;;;;;4983460;28;20786;-73
2022/02/15 03:05:03;;;;;;;3.17;1.87;;;7.20;86.00;;;;;;4979991;28;20418;-73
2022/02/15 03:07:29;;;;;;;3.63;1.87;;;7.20;86.00;;;;;;4980470;28;20191;-73
2022/02/15 03:09:55;;;;;;;3.20;2.17;;;7.20;85.90;;;;;;4974948;28;20433;-73
2022/02/15 03:12:20;;;;;;;4.50;2.20;;;7.20;86.00;;;;;;4981538;28;20183;-74
2022/02/15 03:14:47;;;;;;;3.70;1.87;;;7.20;86.00;;;;;;4985617;28;20595;-69
2022/02/15 03:17:14;;;;;;;7.43;2.17;;;7.20;86.00;;;;;;4979939;28;20198;-74
2022/02/15 03:19:40;;;;;;;2.23;1.60;;;7.20;86.00;;;;;;4983866;28;21122;-72
2022/02/15 03:22:06;;;;;;;3.97;1.83;;;7.30;85.70;;;;;;4973323;28;20430;-74
2022/02/15 03:24:33;;;;;;;5.43;1.73;;;7.30;85.50;;;;;;4976706;28;20432;-74
2022/02/15 03:26:59;;;;;;;6.60;1.77;;;7.30;84.90;;;;;;4979189;28;20186;-72
2022/02/15 03:29:25;;;;;;;2.57;1.83;;;7.30;84.60;;;;;;4975059;28;20856;-73
2022/02/15 03:31:51;;;;;;;4.40;1.90;;;7.30;84.60;;;;;;4987301;28;20529;-73
2022/02/15 03:34:17;;;;;;;2.40;1.70;;;7.30;84.60;;;;;;4972654;28;20525;-74
2022/02/15 03:36:43;;;;;;;6.40;2.07;;;7.30;84.60;;;;;;4984255;28;20199;-74
2022/02/15 03:39:10;;;;;;;3.27;2.13;;;7.40;84.40;;;;;;4982249;28;20194;-74
2022/02/15 03:44:23;;;;;;;3.90;2.20;;;7.40;84.40;;;;;;4988687;28;20832;-73
2022/02/15 03:46:51;;;;;;;9.93;1.80;;;7.40;84.10;;;;;;4979556;28;20415;-72
2022/02/15 03:49:17;;;;;;;2.63;1.97;;;7.40;84.10;;;;;;4982952;28;20433;-74
2022/02/15 03:51:42;;;;;;;2.73;1.77;;;7.40;84.00;;;;;;4979743;28;20504;-72
2022/02/15 03:54:08;;;;;;;2.80;1.67;;;7.40;84.00;;;;;;4984739;28;21200;-71
2022/02/15 03:56:35;;;;;;;2.67;1.40;;;7.40;84.00;;;;;;4981732;28;20429;-70
2022/02/15 03:59:02;;;;;;;5.80;1.60;;;7.40;84.00;;;;;;4984512;28;20281;-71
2022/02/15 04:01:28;;;;;;;3.80;1.70;;;7.40;83.80;;;;;;4979044;28;20445;-72
2022/02/15 04:03:54;;;;;;;7.37;2.20;;;7.40;83.80;;;;;;4979618;28;20428;-72
2022/02/15 04:06:20;;;;;;;2.37;1.60;;;7.40;83.80;;;;;;4984548;28;20214;-72
2022/02/15 04:08:45;;;;;;;2.60;1.67;;;7.40;83.70;;;;;;4979413;28;20423;-71
2022/02/15 04:11:12;;;;;;;5.53;1.80;;;7.50;83.80;;;;;;4983889;28;20220;-70
2022/02/15 04:13:39;;;;;;;3.53;1.90;;;7.50;83.60;;;;;;4975022;28;20184;-74
2022/02/15 04:16:05;;;;;;;2.67;1.80;;;7.50;83.40;;;;;;4980373;28;20448;-71
2022/02/15 04:18:32;;;;;;;3.80;1.77;;;7.50;83.10;;;;;;4984264;28;20464;-74
2022/02/15 04:20:58;;;;;;;3.50;1.67;;;7.50;83.10;;;;;;4969822;28;20477;-72
2022/02/15 04:23:24;;;;;;;2.90;1.47;;;7.50;83.10;;;;;;4982218;28;20453;-71
2022/02/15 04:25:51;;;;;;;3.20;2.10;;;7.50;83.10;;;;;;4972927;28;20199;-72
2022/02/15 04:28:18;;;;;;;5.57;1.60;;;7.50;83.10;;;;;;4977135;28;20580;-72
2022/02/15 04:30:43;;;;;;;3.23;1.53;;;7.50;83.10;;;;;;4978007;28;20475;-71
2022/02/15 04:33:09;;;;;;;3.13;1.70;;;7.50;82.80;;;;;;4980837;28;20868;-73
2022/02/15 04:35:35;;;;;;;3.40;1.50;;;7.50;83.00;;;;;;4972972;28;20463;-73
2022/02/15 04:38:01;;;;;;;2.93;2.03;;;7.50;83.10;;;;;;4979049;28;20512;-73
2022/02/15 04:40:27;;;;;;;2.57;1.70;;;7.50;83.30;;;;;;4970100;28;20492;-72
2022/02/15 04:42:53;;;;;;;3.03;1.73;;;7.40;83.30;;;;;;4980607;28;20481;-71
2022/02/15 04:45:19;;;;;;;7.43;1.87;;;7.50;83.60;;;;;;4994280;28;20194;-72
2022/02/15 04:47:45;;;;;;;3.43;1.70;;;7.40;83.40;;;;;;4988582;28;20667;-72
2022/02/15 04:50:10;;;;;;;7.20;3.03;;;7.50;83.10;;;;;;4990717;28;20728;-71
2022/02/15 04:52:36;;;;;;;4.40;2.13;;;7.50;83.10;;;;;;5000899;28;20187;-72
2022/02/15 04:55:02;;;;;;;3.40;2.10;;;7.50;83.10;;;;;;4991859;28;20221;-71
2022/02/15 04:57:28;;;;;;;10.77;2.63;;;7.50;83.10;;;;;;4999989;28;20221;-72
2022/02/15 04:59:54;;;;;;;5.73;3.00;;;7.50;83.10;;;;;;4985157;28;20414;-72
2022/02/15 05:02:19;;;;;;;3.73;2.20;;;7.40;83.30;;;;;;4986494;28;20220;-71
2022/02/15 05:04:48;;;;;;;3.80;2.60;;;7.40;83.30;;;;;;4982358;28;20192;-71
2022/02/15 05:07:17;;;;;;;5.93;2.97;;;7.40;83.30;;;;;;4983865;28;20429;-71
2022/02/15 05:09:43;;;;;;;6.63;2.60;;;7.50;83.10;;;;;;4978297;28;20529;-72
2022/02/15 05:12:09;;;;;;;5.10;2.83;;;7.50;83.10;;;;;;4985528;28;20485;-73
2022/02/15 05:14:35;;;;;;;9.00;2.80;;;7.40;83.30;;;;;;4989722;28;20356;-71
2022/02/15 05:17:01;;;;;;;6.33;3.10;;;7.40;83.30;;;;;;4990812;28;20509;-71
2022/02/15 05:19:27;;;;;;;4.40;2.60;;;7.40;83.40;;;;;;4990564;28;20266;-73
2022/02/15 05:21:53;;;;;;;3.97;3.10;;;7.40;83.40;;;;;;4970449;28;20203;-72
2022/02/15 05:24:19;;;;;;;4.33;2.67;;;7.40;83.70;;;;;;4977177;28;20593;-71
2022/02/15 05:26:44;;;;;;;4.40;2.50;;;7.40;83.70;;;;;;4976825;28;20431;-71
2022/02/15 05:29:10;;;;;;;4.20;2.47;;;7.40;83.80;;;;;;4977520;28;20930;-72
2022/02/15 05:31:36;;;;;;;5.23;2.67;;;7.40;83.80;;;;;;4983533;28;20543;-72
2022/02/15 05:34:02;;;;;;;4.77;2.40;;;7.40;84.10;;;;;;4971942;28;20204;-72
2022/02/15 05:36:27;;;;;;;4.30;2.50;;;7.40;84.00;;;;;;4980032;28;20265;-71
2022/02/15 05:38:53;;;;;;;2.83;2.33;;;7.40;84.10;;;;;;4971333;28;21002;-72
2022/02/15 05:41:19;;;;;;;4.10;2.20;;;7.50;84.00;;;;;;4976431;28;20198;-72
2022/02/15 05:43:45;;;;;;;5.43;2.47;;;7.40;84.00;;;;;;4975571;28;20567;-72
2022/02/15 05:46:10;;;;;;;5.20;2.53;;;7.50;84.00;;;;;;4979188;28;20179;-72
2022/02/15 05:48:36;;;;;;;4.00;2.20;;;7.50;84.00;;;;;;4972674;28;20184;-72
2022/02/15 05:51:02;;;;;;;4.47;2.67;;;7.50;84.10;;;;;;4979137;28;20221;-72
2022/02/15 05:53:29;;;;;;;5.27;2.40;;;7.50;84.10;;;;;;4970564;28;20180;-72
2022/02/15 05:55:58;;;;;;;4.97;1.80;;;7.50;84.00;;;;;;4971077;28;20211;-72
2022/02/15 05:58:29;;;;;;;4.13;2.00;;;7.50;84.10;;;;;;4977501;28;20510;-71
2022/02/15 06:00:55;;;;;;;3.53;1.90;;;7.50;84.10;;;;;;4960319;28;20437;-75
2022/02/15 06:06:05;;;;;;;6.80;2.10;;;7.50;84.10;;;;;;4978635;28;20414;-72
2022/02/15 06:08:31;;;;;;;3.10;1.90;;;7.50;84.10;;;;;;4970601;28;20428;-73
2022/02/15 06:10:57;;;;;;;4.20;2.20;;;7.50;84.00;;;;;;4983431;28;20203;-72
2022/02/15 06:13:23;;;;;;;2.80;2.03;;;7.50;84.10;;;;;;4972290;28;20184;-73
2022/02/15 06:15:49;;;;;;;2.70;2.17;;;7.50;84.10;;;;;;4986641;28;20969;-71
2022/02/15 06:18:15;;;;;;;3.53;1.70;;;7.50;84.30;;;;;;4982720;28;20421;-71
2022/02/15 06:20:41;;;;;;;2.60;1.60;;;7.50;84.10;;;;;;4974433;28;20450;-73
2022/02/15 06:23:07;;;;;;;4.10;1.97;;;7.50;83.80;;;;;;4978622;28;20244;-73
2022/02/15 06:25:34;;;;;;;4.27;1.93;;;7.50;84.00;;;;;;4980886;28;20509;-73
2022/02/15 06:28:00;;;;;;;2.50;2.10;;;7.50;84.00;;;;;;4980172;28;20418;-73
2022/02/15 06:30:25;;;;;;;6.60;2.23;;;7.50;84.10;;;;;;4975730;28;20489;-72
2022/02/15 06:32:52;;;;;;;3.57;1.90;;;7.50;84.10;;;;;;4991150;28;20421;-73
2022/02/15 06:35:18;;;;;;;2.77;2.23;;;7.50;84.00;;;;;;4984666;28;20256;-73
2022/02/15 06:37:46;;;;;;;4.03;1.93;;;7.50;84.10;;;;;;4985210;28;20438;-72
2022/02/15 06:40:14;;;;;;;3.20;2.30;;;7.50;84.10;;;;;;4986936;28;20434;-72
2022/02/15 06:42:40;;;;;;;4.50;1.90;;;7.50;84.10;;;;;;4974221;28;20808;-72
2022/02/15 06:45:07;;;;;;;4.00;2.27;;;7.50;84.30;;;;;;4984203;28;20426;-72
2022/02/15 06:47:33;;;;;;;4.50;2.23;;;7.50;84.10;;;;;;4972714;28;20466;-73
2022/02/15 06:50:01;;;;;;;4.10;2.33;;;7.50;84.30;;;;;;4982999;28;20513;-73
2022/02/15 06:52:28;;;;;;;5.40;2.30;;;7.50;84.30;;;;;;4984858;28;20533;-71
2022/02/15 06:54:54;;;;;;;4.53;2.27;;;7.50;84.30;;;;;;4972379;28;20513;-72
2022/02/15 06:57:20;;;;;;;3.93;2.40;;;7.50;84.60;;;;;;4982362;28;20480;-72
2022/02/15 06:59:46;;;;;;;7.90;2.40;;;7.50;84.40;;;;;;4976939;28;20426;-72
2022/02/15 07:02:12;;;;;;;3.50;2.30;;;7.50;84.60;;;;;;4977325;28;20496;-72
2022/02/15 07:04:38;;;;;;;3.03;1.97;;;7.50;84.90;;;;;;4979097;28;20249;-72
2022/02/15 07:07:04;;;;;;;3.10;1.77;;;7.50;85.60;;;;;;4981867;28;20584;-72
2022/02/15 07:09:30;;;;;;;2.80;1.90;;;7.40;86.00;;;;;;4975048;28;20476;-72
2022/02/15 07:11:55;;;;;;;3.83;2.50;;;7.40;86.30;;;;;;4980395;28;20434;-72
2022/02/15 07:14:21;;;;;;;4.90;1.93;;;7.30;87.00;;;;;;4975240;28;20473;-71
2022/02/15 07:16:48;;;;;;;5.10;2.33;;;7.30;87.40;;;;;;4978494;28;20191;-73
2022/02/15 07:19:14;;;;;;;4.03;2.70;;;7.30;87.80;;;;;;4983440;28;20541;-71
2022/02/15 07:21:42;;;;;;;2.90;2.00;;;7.20;88.10;;;;;;4967896;28;20455;-71
2022/02/15 07:24:07;;;;;;;7.43;2.90;;;7.20;88.60;;;;;;4979606;28;20851;-73
2022/02/15 07:26:33;;;;;;;3.03;2.33;;;7.20;88.70;;;;;;4986195;28;20460;-73
2022/02/15 07:28:59;;;;;;;7.07;2.60;;;7.20;89.00;;;;;;4975797;28;20435;-72
2022/02/15 07:31:25;;;;;;;5.33;2.10;;;7.20;89.20;;;;;;4983252;28;20206;-72
2022/02/15 07:33:50;;;;;;;4.73;2.37;;;7.20;89.20;;;;;;4974899;28;20661;-72
2022/02/15 07:36:17;;;;;;;5.40;2.47;;;7.30;88.90;;;;;;4979024;28;20241;-73
2022/02/15 07:38:43;;;;;;;6.33;2.47;;;7.30;88.70;;;;;;4983224;28;20193;-73
2022/02/15 07:41:09;;;;;;;4.03;2.07;;;7.30;88.60;;;;;;4981765;28;20446;-73
2022/02/15 07:43:35;;;;;;;4.60;1.97;;;7.30;88.10;;;;;;4975806;28;20920;-72
2022/02/15 07:46:01;;;;;;;4.83;2.13;;;7.40;88.10;;;;;;4980222;28;20425;-72
2022/02/15 07:48:28;;;;;;;4.97;2.17;;;7.30;88.10;;;;;;4972184;28;20432;-74
2022/02/15 07:50:54;;;;;;;4.97;2.20;;;7.40;88.10;;;;;;4973396;28;20496;-73
2022/02/15 07:53:20;;;;;;;3.50;2.00;;;7.50;87.60;;;;;;4978519;28;20881;-73
2022/02/15 07:55:46;;;;;;;3.50;2.10;;;7.50;87.30;;;;;;4976212;28;20503;-75
2022/02/15 07:58:12;;;;;;;2.43;1.73;;;7.50;87.10;;;;;;4981783;28;20430;-74
2022/02/15 08:00:38;;;;;;;5.10;2.07;;;7.50;86.80;;;;;;4972686;28;20230;-74
2022/02/15 08:03:04;;;;;;;4.37;2.17;;;7.50;86.60;;;;;;4980569;28;20608;-74
2022/02/15 08:05:30;;;;;;;3.93;2.07;;;7.50;86.60;;;;;;4985263;28;20507;-73
2022/02/15 08:07:57;;;;;;;3.27;1.80;;;7.50;86.60;;;;;;4975783;28;20853;-74
2022/02/15 08:10:24;;;;;;;4.67;2.83;;;7.60;86.50;;;;;;4981268;28;20312;-74
2022/02/15 08:12:55;;;;;;;5.10;1.83;;;7.60;86.30;;;;;;4973795;28;20415;-75
2022/02/15 08:15:23;;;;;;;2.10;1.53;;;7.70;85.70;;;;;;4980405;28;20465;-74
2022/02/15 08:17:49;;;;;;;2.70;1.60;;;7.70;85.60;;;;;;4976013;28;20421;-74
2022/02/15 08:20:14;;;;;;;2.20;1.80;;;7.70;84.90;;;;;;4974584;28;20451;-74
2022/02/15 08:22:40;;;;;;;2.23;1.63;;;7.70;85.00;;;;;;4969521;28;20424;-74
2022/02/15 08:25:07;;;;;;;5.30;2.60;;;7.80;85.20;;;;;;4978392;28;20495;-74
2022/02/15 08:27:33;;;;;;;3.70;2.07;;;7.70;85.20;;;;;;4983261;28;20785;-74
2022/02/15 08:29:59;;;;;;;3.77;1.90;;;7.70;85.20;;;;;;4976835;28;20426;-74
2022/02/15 08:32:25;;;;;;;4.27;1.80;;;7.80;85.00;;;;;;4978117;28;20432;-74
2022/02/15 08:34:51;;;;;;;3.20;1.60;;;7.80;84.90;;;;;;4974288;28;20571;-74
2022/02/15 08:37:17;;;;;;;3.87;1.70;;;7.80;84.40;;;;;;4976355;28;20184;-74
2022/02/15 08:39:43;;;;;;;3.80;1.63;;;7.90;84.10;;;;;;4985488;28;20430;-75
2022/02/15 08:42:09;;;;;;;3.57;2.27;;;7.90;83.70;;;;;;4977032;28;20450;-74
2022/02/15 08:44:36;;;;;;;4.30;1.73;;;7.90;83.60;;;;;;4985299;28;20819;-74
2022/02/15 08:47:05;;;;;;;2.97;1.97;;;7.90;83.60;;;;;;4957259;28;20188;-74
2022/02/15 08:49:38;;;;;;;2.73;1.70;;;7.90;83.60;;;;;;4980351;28;20436;-74
2022/02/15 08:52:04;;;;;;;3.10;1.73;;;7.90;83.70;;;;;;4970233;28;20447;-74
2022/02/15 08:54:30;;;;;;;2.90;1.77;;;7.90;83.60;;;;;;4979602;28;20468;-74
2022/02/15 08:56:56;;;;;;;3.77;1.73;;;7.80;83.80;;;;;;4976639;28;20497;-75
2022/02/15 08:59:22;;;;;;;4.33;1.80;;;7.90;84.10;;;;;;4979083;28;20262;-74
2022/02/15 09:01:50;;;;;;;3.90;1.70;;;7.90;84.00;;;;;;4972400;28;20888;-74
2022/02/15 09:04:16;;;;;;;4.63;1.57;;;7.90;83.60;;;;;;4978499;28;20828;-74
2022/02/15 09:06:42;;;;;;;3.80;1.83;;;8.00;83.30;;;;;;4979594;28;20427;-75
2022/02/15 09:09:13;;;;;;;24.17;4.50;;;8.00;83.00;;;;;;4976889;28;20532;-74
2022/02/15 09:11:40;;;;;;;1.70;1.27;;;8.00;83.30;;;;;;4976293;28;20455;-74
2022/02/15 09:14:05;;;;;;;2.70;1.17;;;8.00;82.80;;;;;;4975078;28;20434;-74
2022/02/15 09:16:32;;;;;;;1.30;1.10;;;8.00;83.00;;;;;;4971970;28;20428;-74
2022/02/15 09:18:58;;;;;;;2.57;1.30;;;8.00;82.80;;;;;;4984480;28;20639;-74
2022/02/15 09:21:24;;;;;;;2.00;1.10;;;8.00;83.10;;;;;;4965986;28;20498;-74
2022/02/15 09:23:50;;;;;;;1.10;0.90;;;8.00;82.20;;;;;;4984067;28;20415;-73
2022/02/15 09:26:16;;;;;;;8.70;1.60;;;7.90;82.10;;;;;;4978939;28;20555;-75
2022/02/15 09:28:41;;;;;;;5.97;1.63;;;7.90;83.00;;;;;;4976471;28;20418;-74
2022/02/15 09:31:07;;;;;;;3.20;1.63;;;7.90;83.30;;;;;;4975828;28;20198;-74
2022/02/15 09:33:33;;;;;;;4.83;1.60;;;7.90;82.80;;;;;;4976058;28;20183;-74
2022/02/15 09:35:59;;;;;;;3.87;2.07;;;7.90;82.70;;;;;;4971257;28;20572;-75
2022/02/15 09:38:25;;;;;;;3.00;1.67;;;7.90;82.20;;;;;;4975078;28;20185;-75
2022/02/15 09:40:50;;;;;;;4.27;1.67;;;7.90;82.40;;;;;;4977540;28;20201;-74
2022/02/15 09:43:17;;;;;;;20.33;3.57;;;8.00;81.90;;;;;;4974970;28;20194;-74
2022/02/15 09:45:46;;;;;;;4.87;1.80;;;8.10;81.80;;;;;;4979680;28;20195;-74
2022/02/15 09:48:13;;;;;;;5.97;2.00;;;8.20;81.40;;;;;;4987507;28;20902;-74
2022/02/15 09:50:40;;;;;;;4.17;1.90;;;8.30;80.20;;;;;;4975027;28;20522;-74
2022/02/15 09:53:07;;;;;;;12.43;2.83;;;8.30;80.60;;;;;;4985424;28;20425;-74
2022/02/15 09:55:33;;;;;;;12.10;2.63;;;8.50;80.00;;;;;;4973311;28;20475;-75
2022/02/15 09:57:59;;;;;;;6.23;2.10;;;8.60;79.00;;;;;;4982039;28;20808;-72
2022/02/15 10:00:25;;;;;;;9.80;2.53;;;8.70;78.30;;;;;;4985211;28;21010;-75
2022/02/15 10:02:53;;;;;;;3.40;1.93;;;8.80;76.80;;;;;;4977493;28;20463;-74
2022/02/15 10:05:20;;;;;;;3.00;2.30;;;8.90;75.10;;;;;;4981275;28;20431;-74
2022/02/15 10:07:57;;;;;;;5.70;2.10;;;9.00;75.40;;;;;;4981526;28;20488;-73
2022/02/15 10:10:31;;;;;;;4.57;1.90;;;8.90;75.80;;;;;;4982834;28;20545;-74
2022/02/15 10:13:03;;;;;;;2.70;1.90;;;8.90;73.30;;;;;;4968444;28;20436;-75
2022/02/15 10:15:34;;;;;;;4.30;2.30;;;9.00;73.70;;;;;;4982933;28;20465;-73
2022/02/15 10:18:15;;;;;;;4.17;2.17;;;8.80;72.40;;;;;;4980876;28;20421;-76
2022/02/15 10:20:47;;;;;;;4.70;2.10;;;8.80;72.10;;;;;;4974675;28;20442;-74
2022/02/15 10:23:16;;;;;;;8.63;2.33;;;8.90;72.00;;;;;;4981149;28;20946;-74
2022/02/15 10:25:42;;;;;;;4.33;2.20;;;9.00;71.80;;;;;;4978028;28;20441;-73
2022/02/15 10:28:16;;;;;;;7.30;2.37;;;9.20;71.80;;;;;;4976900;28;20421;-73
2022/02/15 10:30:51;;;;;;;2.70;1.87;;;9.20;71.70;;;;;;4978624;28;20452;-72
2022/02/15 10:33:19;;;;;;;4.60;2.00;;;9.20;71.70;;;;;;4981063;28;20529;-71
2022/02/15 10:36:03;;;;;;;4.00;1.70;;;9.30;71.40;;;;;;4976063;28;20835;-73
2022/02/15 10:38:34;;;;;;;3.93;2.00;;;9.20;71.40;;;;;;4981380;28;21131;-75
2022/02/15 10:41:05;;;;;;;4.60;2.30;;;9.30;71.40;;;;;;4973327;28;20509;-72
2022/02/15 10:43:47;;;;;;;4.47;1.97;;;9.30;71.30;;;;;;4978100;28;20433;-73
2022/02/15 10:46:24;;;;;;;2.53;1.47;;;9.20;68.30;;;;;;4981592;28;20426;-72
2022/02/15 10:48:51;;;;;;;2.60;1.40;;;9.10;67.90;;;;;;4974544;28;20623;-71
2022/02/15 10:51:17;;;;;;;2.00;1.40;;;9.00;67.90;;;;;;4981215;28;20457;-71
2022/02/15 10:53:43;;;;;;;2.90;1.80;;;9.00;68.00;;;;;;4983268;28;20435;-72
2022/02/15 10:56:10;;;;;;;4.27;1.70;;;8.90;69.20;;;;;;4978871;28;20505;-72
2022/02/15 10:58:37;;;;;;;2.80;1.60;;;8.90;69.70;;;;;;4979188;28;20813;-73
2022/02/15 11:01:10;;;;;;;5.37;1.67;;;8.90;70.10;;;;;;4978985;28;20437;-72
2022/02/15 11:03:38;;;;;;;4.87;1.73;;;8.90;70.40;;;;;;4977269;28;20431;-74
2022/02/15 11:06:05;;;;;;;3.03;1.60;;;8.80;70.10;;;;;;4989086;28;20469;-74
2022/02/15 11:08:33;;;;;;;4.67;1.77;;;8.70;70.50;;;;;;4973594;28;20419;-70
2022/02/15 11:11:14;;;;;;;6.47;2.10;;;8.70;70.80;;;;;;4986353;28;20442;-73
2022/02/15 11:13:41;;;;;;;3.37;2.00;;;8.70;70.70;;;;;;4973570;28;20436;-73
2022/02/15 11:16:15;;;;;;;4.00;1.70;;;8.70;70.80;;;;;;4982157;28;20493;-74
2022/02/15 11:18:42;;;;;;;3.50;1.57;;;8.70;70.20;;;;;;4985623;28;20425;-72
2022/02/15 11:21:19;;;;;;;3.90;1.87;;;8.70;70.50;;;;;;4966925;28;20454;-74
2022/02/15 11:24:00;;;;;;;3.50;1.50;;;8.80;70.40;;;;;;4984801;28;20492;-73
2022/02/15 11:26:43;;;;;;;9.10;2.73;;;8.80;68.90;;;;;;4985604;28;20440;-73
2022/02/15 11:29:23;;;;;;;11.53;2.77;;;8.80;68.60;;;;;;4972092;28;20448;-71
2022/02/15 11:31:50;;;;;;;20.37;3.37;;;8.80;68.90;;;;;;4987842;28;20434;-73
2022/02/15 11:34:16;;;;;;;12.80;2.93;;;8.90;68.60;;;;;;4972737;28;21040;-73
2022/02/15 11:36:50;;;;;;;2.30;1.40;;;9.00;67.90;;;;;;4983932;28;20457;-72
2022/02/15 11:39:27;;;;;;;3.20;1.80;;;9.00;67.60;;;;;;4970553;28;20451;-70
2022/02/15 11:41:55;;;;;;;2.30;1.40;;;9.00;67.90;;;;;;4980505;28;20466;-71
2022/02/15 11:44:31;;;;;;;4.43;2.00;;;8.90;68.30;;;;;;4983654;28;20438;-73
2022/02/15 11:47:12;;;;;;;1.80;1.47;;;8.90;68.80;;;;;;4971545;28;20880;-72
2022/02/15 11:49:58;;;;;;;3.60;1.70;;;8.80;68.00;;;;;;4984940;28;20422;-72
2022/02/15 11:52:26;;;;;;;2.73;1.37;;;8.90;67.90;;;;;;4977673;28;20562;-72
2022/02/15 11:54:54;;;;;;;4.70;1.60;;;8.90;65.40;;;;;;4983533;28;20470;-72
2022/02/15 11:57:20;;;;;;;2.03;1.30;;;8.80;64.40;;;;;;4982796;28;20432;-74
2022/02/15 11:59:51;;;;;;;2.30;1.63;;;8.80;63.40;;;;;;4978311;28;20700;-73
2022/02/15 12:02:17;;;;;;;2.20;1.33;;;8.90;63.70;;;;;;4985236;28;20437;-73
2022/02/15 12:04:56;;;;;;;1.70;1.37;;;9.00;63.70;;;;;;4977472;28;20751;-72
2022/02/15 12:07:27;;;;;;;1.97;1.40;;;9.10;63.50;;;;;;4981654;28;20186;-74
2022/02/15 12:09:54;;;;;;;2.77;1.53;;;9.50;62.00;;;;;;4978482;28;20421;-73
2022/02/15 12:12:20;;;;;;;4.30;1.70;;;9.60;61.60;;;;;;4975880;28;20453;-71
2022/02/15 12:14:55;;;;;;;2.17;1.50;;;9.60;61.60;;;;;;4975351;28;20869;-73
2022/02/15 12:17:25;;;;;;;2.60;1.73;;;9.60;62.30;;;;;;4976710;28;20417;-71
2022/02/15 12:19:59;;;;;;;5.30;1.60;;;9.60;61.90;;;;;;4976787;28;20464;-74
2022/02/15 12:22:26;;;;;;;3.00;1.70;;;9.70;62.00;;;;;;4967517;28;20509;-72
2022/02/15 12:24:56;;;;;;;2.67;1.67;;;10.00;62.20;;;;;;4977092;28;20418;-71
2022/02/15 12:27:24;;;;;;;9.73;1.80;;;10.20;61.50;;;;;;4970226;28;20967;-71
2022/02/15 12:29:54;;;;;;;4.33;1.77;;;10.30;61.90;;;;;;4969421;28;20486;-72
2022/02/15 12:32:23;;;;;;;9.43;5.93;;;10.30;61.60;;;;;;4971853;28;20822;-73
2022/02/15 12:34:50;;;;;;;2.90;1.93;;;10.20;62.20;;;;;;4974045;28;20826;-72
2022/02/15 12:37:24;;;;;;;4.00;2.20;;;10.00;63.40;;;;;;4980446;28;20546;-73
2022/02/15 12:39:58;;;;;;;6.30;2.17;;;9.70;64.50;;;;;;4981427;28;20984;-71
2022/02/15 12:42:26;;;;;;;3.77;2.20;;;9.40;65.00;;;;;;4970992;28;20435;-70
2022/02/15 12:45:07;;;;;;;9.67;3.67;;;9.40;65.40;;;;;;4984961;28;20501;-71
2022/02/15 12:47:35;;;;;;;5.90;2.90;;;9.40;65.60;;;;;;4970667;28;20423;-72
2022/02/15 12:50:01;;;;;;;7.13;3.20;;;9.30;66.10;;;;;;4980735;28;20421;-72
2022/02/15 12:52:29;;;;;;;5.43;2.33;;;9.30;66.30;;;;;;4969431;28;20486;-72
2022/02/15 12:54:57;;;;;;;4.30;2.03;;;9.30;66.30;;;;;;4969802;28;20501;-73
2022/02/15 12:57:25;;;;;;;5.10;2.40;;;9.30;66.70;;;;;;4986563;28;20422;-71
2022/02/15 12:59:52;;;;;;;5.90;2.50;;;9.40;66.00;;;;;;4968370;28;20508;-72
2022/02/15 13:02:22;;;;;;;5.50;2.50;;;9.50;65.80;;;;;;4977622;28;20543;-71
2022/02/15 13:04:49;;;;;;;4.93;2.43;;;9.50;65.80;;;;;;4972622;28;20431;-71